Accueil
METAR-TAF:

METAR-TAF

Aéroports :

Harare, Zimbabwe

Aéroport international d'Harare

latitude: 17-55S, longitude: 031-08E, altitude: 1479 m

Observation

Le bulletin a été fait il y a 1 heure et 11 minutes, à 07:00 UTC
Vent 5 kt de nord-ouest, variant entre sud-ouest et nord
Température 21°C
Humidité 49%
Pression 1024 hPa
Visibilité 10 km ou plus
pas de nuages en-dessous de 1500 mètres et pas de cumulonimbus.

METAR: FVHA 270700Z 31005KT 230V360 CAVOK 21/10 Q1024 NOSIG

Heure: 10:11 (08:11 UTC)

Prévision

Le bulletin a été fait il y a 10 heures et 11 minutes, à 22:00 UTC
Prévision valable du 27 à 00 UTC au 28 à 06 UTC
Vent 4 kt de direction variable
Visibilité 10 km ou plus
pas de nuages en-dessous de 1500 mètres et pas de cumulonimbus.

TAF: FVHA 262200Z 2700/2806 VRB04KT CAVOK

Observations et prévisions météorologiques de plus de 4000 aéroports (messages METAR et TAF).

Les stations disponibles sont représentées par des disques jaunes et rouges sur la carte.

Passer la souris dessus pour voir le nom de la station.

Cliquer dessus pour voir les observations et prévisions météorologiques.

Pour changer de carte: cliquez sur les boutons verts avec une croix noire pour zoomer, sur le bouton vert avec un tiret pour effectuer un zoom arrière, ou sur les flèches vertes pour les cartes adjacentes.


METAR-TAF: